Naxera, Virginia
Current Conditions -  °F | °C
As of 12:35 AM on Sunday 26 Oct 2014 (Local Time) from KW75 Reporting Station
Clear Clear  
Wind Chill: 58°   Ceiling: Unl
Heat Index: 58°   Visibility: 10mi
Dew Point: 45°   Wind: 5mph
Humidity: 63%   Direction: 240°WSW
Pressure: 29.74"   Gusts: NA
Location:  37.4386°N, 76.5499°W
Report Text: KW75 260435Z AUTO 24004KT 10SM CLR 14/07 A2974 RMK AO1 T01430074
Loading
Personal Weather Stations






























Interactive Weather Map
Tropical Storm Tracking
New forecast layout! Learn more

10-Day Weather Forecast

Advertisements
Track Severe Weather on mobile